sensor_id;sensor_type;location;lat;lon;timestamp;P1;durP1;ratioP1;P2;durP2;ratioP2
21886;SDS011;11108;49.988;8.182;2023-09-07T00:00:17;3.20;;;3.00;;
21886;SDS011;11108;49.988;8.182;2023-09-07T00:02:42;3.40;;;2.78;;
21886;SDS011;11108;49.988;8.182;2023-09-07T00:05:07;3.13;;;2.88;;
21886;SDS011;11108;49.988;8.182;2023-09-07T00:07:33;3.10;;;2.90;;
21886;SDS011;11108;49.988;8.182;2023-09-07T00:09:58;2.90;;;2.80;;
21886;SDS011;11108;49.988;8.182;2023-09-07T00:12:24;2.55;;;2.45;;
21886;SDS011;11108;49.988;8.182;2023-09-07T00:14:49;3.10;;;2.90;;
21886;SDS011;11108;49.988;8.182;2023-09-07T00:17:15;2.97;;;2.88;;
21886;SDS011;11108;49.988;8.182;2023-09-07T00:19:40;3.10;;;2.90;;
21886;SDS011;11108;49.988;8.182;2023-09-07T00:22:05;3.10;;;2.72;;
21886;SDS011;11108;49.988;8.182;2023-09-07T00:24:30;3.10;;;2.97;;
21886;SDS011;11108;49.988;8.182;2023-09-07T00:26:56;2.90;;;2.70;;
21886;SDS011;11108;49.988;8.182;2023-09-07T00:29:22;3.20;;;2.90;;
21886;SDS011;11108;49.988;8.182;2023-09-07T00:31:47;3.17;;;2.97;;
21886;SDS011;11108;49.988;8.182;2023-09-07T00:34:12;2.90;;;2.60;;
21886;SDS011;11108;49.988;8.182;2023-09-07T00:36:37;2.90;;;2.70;;
21886;SDS011;11108;49.988;8.182;2023-09-07T00:39:03;3.33;;;3.03;;
21886;SDS011;11108;49.988;8.182;2023-09-07T00:41:28;2.70;;;2.60;;
21886;SDS011;11108;49.988;8.182;2023-09-07T00:43:53;2.90;;;2.70;;
21886;SDS011;11108;49.988;8.182;2023-09-07T00:46:19;3.70;;;3.40;;
21886;SDS011;11108;49.988;8.182;2023-09-07T00:48:44;2.60;;;2.50;;
21886;SDS011;11108;49.988;8.182;2023-09-07T00:51:09;2.73;;;2.63;;
21886;SDS011;11108;49.988;8.182;2023-09-07T00:53:34;3.15;;;2.95;;
21886;SDS011;11108;49.988;8.182;2023-09-07T00:56:00;2.90;;;2.70;;
21886;SDS011;11108;49.988;8.182;2023-09-07T00:58:26;3.00;;;2.80;;
21886;SDS011;11108;49.988;8.182;2023-09-07T01:00:52;2.90;;;2.70;;
21886;SDS011;11108;49.988;8.182;2023-09-07T01:03:18;2.43;;;2.33;;
21886;SDS011;11108;49.988;8.182;2023-09-07T01:05:47;2.90;;;2.70;;
21886;SDS011;11108;49.988;8.182;2023-09-07T01:08:17;2.93;;;2.70;;
21886;SDS011;11108;49.988;8.182;2023-09-07T01:10:44;2.80;;;2.60;;
21886;SDS011;11108;49.988;8.182;2023-09-07T01:13:09;2.83;;;2.63;;
21886;SDS011;11108;49.988;8.182;2023-09-07T01:15:34;2.90;;;2.70;;
21886;SDS011;11108;49.988;8.182;2023-09-07T01:17:59;3.13;;;2.93;;
21886;SDS011;11108;49.988;8.182;2023-09-07T01:20:25;3.87;;;2.57;;
21886;SDS011;11108;49.988;8.182;2023-09-07T01:22:50;2.73;;;2.60;;
21886;SDS011;11108;49.988;8.182;2023-09-07T01:25:16;3.27;;;2.63;;
21886;SDS011;11108;49.988;8.182;2023-09-07T01:27:41;2.78;;;2.67;;
21886;SDS011;11108;49.988;8.182;2023-09-07T01:30:07;2.93;;;2.73;;
21886;SDS011;11108;49.988;8.182;2023-09-07T01:32:33;2.93;;;2.73;;
21886;SDS011;11108;49.988;8.182;2023-09-07T01:34:58;2.75;;;2.55;;
21886;SDS011;11108;49.988;8.182;2023-09-07T01:37:24;2.60;;;2.50;;
21886;SDS011;11108;49.988;8.182;2023-09-07T01:39:49;2.83;;;2.63;;
21886;SDS011;11108;49.988;8.182;2023-09-07T01:42:15;3.10;;;2.90;;
21886;SDS011;11108;49.988;8.182;2023-09-07T01:44:40;2.55;;;2.35;;
21886;SDS011;11108;49.988;8.182;2023-09-07T01:47:05;3.00;;;2.80;;
21886;SDS011;11108;49.988;8.182;2023-09-07T01:49:30;3.00;;;2.80;;
21886;SDS011;11108;49.988;8.182;2023-09-07T01:51:55;3.38;;;3.08;;
21886;SDS011;11108;49.988;8.182;2023-09-07T01:54:21;3.03;;;2.63;;
21886;SDS011;11108;49.988;8.182;2023-09-07T01:56:46;2.72;;;2.53;;
21886;SDS011;11108;49.988;8.182;2023-09-07T01:59:11;2.90;;;2.70;;
21886;SDS011;11108;49.988;8.182;2023-09-07T02:01:36;3.00;;;2.80;;
21886;SDS011;11108;49.988;8.182;2023-09-07T02:04:03;2.70;;;2.50;;
21886;SDS011;11108;49.988;8.182;2023-09-07T02:06:29;2.75;;;2.55;;
21886;SDS011;11108;49.988;8.182;2023-09-07T02:08:54;2.90;;;2.70;;
21886;SDS011;11108;49.988;8.182;2023-09-07T02:11:19;2.70;;;2.50;;
21886;SDS011;11108;49.988;8.182;2023-09-07T02:13:45;2.87;;;2.67;;
21886;SDS011;11108;49.988;8.182;2023-09-07T02:16:10;2.90;;;2.60;;
21886;SDS011;11108;49.988;8.182;2023-09-07T02:18:36;2.93;;;2.73;;
21886;SDS011;11108;49.988;8.182;2023-09-07T02:21:05;2.80;;;2.60;;
21886;SDS011;11108;49.988;8.182;2023-09-07T02:23:30;2.63;;;2.43;;
21886;SDS011;11108;49.988;8.182;2023-09-07T02:25:56;3.03;;;2.83;;
21886;SDS011;11108;49.988;8.182;2023-09-07T02:28:21;2.60;;;2.50;;
21886;SDS011;11108;49.988;8.182;2023-09-07T02:30:47;2.50;;;2.40;;
21886;SDS011;11108;49.988;8.182;2023-09-07T02:33:12;3.10;;;2.90;;
21886;SDS011;11108;49.988;8.182;2023-09-07T02:35:37;3.23;;;3.03;;
21886;SDS011;11108;49.988;8.182;2023-09-07T02:38:02;3.70;;;2.90;;
21886;SDS011;11108;49.988;8.182;2023-09-07T02:40:28;2.20;;;2.10;;
21886;SDS011;11108;49.988;8.182;2023-09-07T02:42:53;2.63;;;2.53;;
21886;SDS011;11108;49.988;8.182;2023-09-07T02:45:18;2.87;;;2.67;;
21886;SDS011;11108;49.988;8.182;2023-09-07T02:47:43;2.77;;;2.57;;
21886;SDS011;11108;49.988;8.182;2023-09-07T02:50:08;2.93;;;2.73;;
21886;SDS011;11108;49.988;8.182;2023-09-07T02:52:34;2.50;;;2.30;;
21886;SDS011;11108;49.988;8.182;2023-09-07T02:54:59;2.95;;;2.75;;
21886;SDS011;11108;49.988;8.182;2023-09-07T02:57:25;2.57;;;2.43;;
21886;SDS011;11108;49.988;8.182;2023-09-07T02:59:50;2.92;;;2.58;;
21886;SDS011;11108;49.988;8.182;2023-09-07T03:02:16;3.10;;;2.90;;
21886;SDS011;11108;49.988;8.182;2023-09-07T03:04:42;2.72;;;2.63;;
21886;SDS011;11108;49.988;8.182;2023-09-07T03:07:07;3.00;;;2.80;;
21886;SDS011;11108;49.988;8.182;2023-09-07T03:09:32;2.53;;;2.42;;
21886;SDS011;11108;49.988;8.182;2023-09-07T03:11:57;2.50;;;2.40;;
21886;SDS011;11108;49.988;8.182;2023-09-07T03:14:22;2.40;;;2.30;;
21886;SDS011;11108;49.988;8.182;2023-09-07T03:16:49;2.70;;;2.60;;
21886;SDS011;11108;49.988;8.182;2023-09-07T03:19:15;2.70;;;2.50;;
21886;SDS011;11108;49.988;8.182;2023-09-07T03:21:40;2.47;;;2.37;;
21886;SDS011;11108;49.988;8.182;2023-09-07T03:24:05;3.00;;;2.80;;
21886;SDS011;11108;49.988;8.182;2023-09-07T03:26:31;2.47;;;2.33;;
21886;SDS011;11108;49.988;8.182;2023-09-07T03:28:56;2.80;;;2.60;;
21886;SDS011;11108;49.988;8.182;2023-09-07T03:31:22;2.47;;;2.37;;
21886;SDS011;11108;49.988;8.182;2023-09-07T03:33:47;2.10;;;2.00;;
21886;SDS011;11108;49.988;8.182;2023-09-07T03:36:13;2.47;;;2.23;;
21886;SDS011;11108;49.988;8.182;2023-09-07T03:38:42;3.03;;;2.83;;
21886;SDS011;11108;49.988;8.182;2023-09-07T03:41:08;2.27;;;2.17;;
21886;SDS011;11108;49.988;8.182;2023-09-07T03:43:33;3.08;;;2.88;;
21886;SDS011;11108;49.988;8.182;2023-09-07T03:45:58;2.67;;;2.50;;
21886;SDS011;11108;49.988;8.182;2023-09-07T03:48:23;2.50;;;2.40;;
21886;SDS011;11108;49.988;8.182;2023-09-07T03:50:49;2.90;;;2.70;;
21886;SDS011;11108;49.988;8.182;2023-09-07T03:53:14;2.67;;;2.57;;
21886;SDS011;11108;49.988;8.182;2023-09-07T03:55:44;2.60;;;2.40;;
21886;SDS011;11108;49.988;8.182;2023-09-07T03:58:10;2.60;;;2.40;;
21886;SDS011;11108;49.988;8.182;2023-09-07T04:00:38;2.90;;;2.70;;
21886;SDS011;11108;49.988;8.182;2023-09-07T04:03:03;2.70;;;2.60;;
21886;SDS011;11108;49.988;8.182;2023-09-07T04:05:28;2.83;;;2.70;;
21886;SDS011;11108;49.988;8.182;2023-09-07T04:07:53;2.80;;;2.70;;
21886;SDS011;11108;49.988;8.182;2023-09-07T04:10:19;3.43;;;2.70;;
21886;SDS011;11108;49.988;8.182;2023-09-07T04:12:45;3.83;;;2.90;;
21886;SDS011;11108;49.988;8.182;2023-09-07T04:15:10;2.93;;;2.60;;
21886;SDS011;11108;49.988;8.182;2023-09-07T04:17:35;3.40;;;2.60;;
21886;SDS011;11108;49.988;8.182;2023-09-07T04:20:05;2.83;;;2.70;;
21886;SDS011;11108;49.988;8.182;2023-09-07T04:22:31;3.07;;;2.87;;
21886;SDS011;11108;49.988;8.182;2023-09-07T04:24:56;2.93;;;2.63;;
21886;SDS011;11108;49.988;8.182;2023-09-07T04:27:21;3.13;;;2.88;;
21886;SDS011;11108;49.988;8.182;2023-09-07T04:29:46;3.80;;;2.50;;
21886;SDS011;11108;49.988;8.182;2023-09-07T04:32:12;4.07;;;2.47;;
21886;SDS011;11108;49.988;8.182;2023-09-07T04:34:37;3.17;;;2.97;;
21886;SDS011;11108;49.988;8.182;2023-09-07T04:37:02;2.47;;;2.27;;
21886;SDS011;11108;49.988;8.182;2023-09-07T04:39:27;2.67;;;2.47;;
21886;SDS011;11108;49.988;8.182;2023-09-07T04:41:52;3.00;;;2.80;;
21886;SDS011;11108;49.988;8.182;2023-09-07T04:44:18;10.63;;;3.17;;
21886;SDS011;11108;49.988;8.182;2023-09-07T04:46:43;2.30;;;2.20;;
21886;SDS011;11108;49.988;8.182;2023-09-07T04:49:08;2.40;;;2.30;;
21886;SDS011;11108;49.988;8.182;2023-09-07T04:51:34;2.92;;;2.72;;
21886;SDS011;11108;49.988;8.182;2023-09-07T04:53:59;2.70;;;2.60;;
21886;SDS011;11108;49.988;8.182;2023-09-07T04:56:24;2.70;;;2.57;;
21886;SDS011;11108;49.988;8.182;2023-09-07T04:58:50;2.93;;;2.73;;
21886;SDS011;11108;49.988;8.182;2023-09-07T05:01:15;2.60;;;2.50;;
21886;SDS011;11108;49.988;8.182;2023-09-07T05:03:41;2.60;;;2.47;;
21886;SDS011;11108;49.988;8.182;2023-09-07T05:06:06;2.90;;;2.70;;
21886;SDS011;11108;49.988;8.182;2023-09-07T05:08:31;3.20;;;2.90;;
21886;SDS011;11108;49.988;8.182;2023-09-07T05:10:57;2.97;;;2.77;;
21886;SDS011;11108;49.988;8.182;2023-09-07T05:13:23;3.50;;;2.90;;
21886;SDS011;11108;49.988;8.182;2023-09-07T05:15:49;3.00;;;2.75;;
21886;SDS011;11108;49.988;8.182;2023-09-07T05:18:15;2.77;;;2.57;;
21886;SDS011;11108;49.988;8.182;2023-09-07T05:20:40;2.90;;;2.70;;
21886;SDS011;11108;49.988;8.182;2023-09-07T05:23:05;3.08;;;2.88;;
21886;SDS011;11108;49.988;8.182;2023-09-07T05:25:30;3.00;;;2.80;;
21886;SDS011;11108;49.988;8.182;2023-09-07T05:27:56;3.00;;;2.70;;
21886;SDS011;11108;49.988;8.182;2023-09-07T05:30:21;2.80;;;2.60;;
21886;SDS011;11108;49.988;8.182;2023-09-07T05:32:46;3.20;;;3.00;;
21886;SDS011;11108;49.988;8.182;2023-09-07T05:35:11;2.92;;;2.72;;
21886;SDS011;11108;49.988;8.182;2023-09-07T05:37:37;3.17;;;2.97;;
21886;SDS011;11108;49.988;8.182;2023-09-07T05:40:02;3.47;;;2.70;;
21886;SDS011;11108;49.988;8.182;2023-09-07T05:42:28;3.08;;;2.85;;
21886;SDS011;11108;49.988;8.182;2023-09-07T05:44:53;2.90;;;2.70;;
21886;SDS011;11108;49.988;8.182;2023-09-07T05:47:19;2.90;;;2.70;;
21886;SDS011;11108;49.988;8.182;2023-09-07T05:49:44;3.37;;;3.07;;
21886;SDS011;11108;49.988;8.182;2023-09-07T05:52:09;2.50;;;2.30;;
21886;SDS011;11108;49.988;8.182;2023-09-07T05:54:34;2.47;;;2.37;;
21886;SDS011;11108;49.988;8.182;2023-09-07T05:56:59;2.85;;;2.65;;
21886;SDS011;11108;49.988;8.182;2023-09-07T05:59:25;3.93;;;2.70;;
21886;SDS011;11108;49.988;8.182;2023-09-07T06:01:50;2.78;;;2.45;;
21886;SDS011;11108;49.988;8.182;2023-09-07T06:04:15;2.83;;;2.63;;
21886;SDS011;11108;49.988;8.182;2023-09-07T06:06:40;2.97;;;2.78;;
21886;SDS011;11108;49.988;8.182;2023-09-07T06:09:05;3.03;;;2.83;;
21886;SDS011;11108;49.988;8.182;2023-09-07T06:11:31;2.97;;;2.78;;
21886;SDS011;11108;49.988;8.182;2023-09-07T06:13:57;2.80;;;2.60;;
21886;SDS011;11108;49.988;8.182;2023-09-07T06:16:22;2.60;;;2.50;;
21886;SDS011;11108;49.988;8.182;2023-09-07T06:18:47;2.77;;;2.57;;
21886;SDS011;11108;49.988;8.182;2023-09-07T06:21:12;2.63;;;2.53;;
21886;SDS011;11108;49.988;8.182;2023-09-07T06:23:38;2.70;;;2.50;;
21886;SDS011;11108;49.988;8.182;2023-09-07T06:26:03;2.65;;;2.55;;
21886;SDS011;11108;49.988;8.182;2023-09-07T06:28:28;2.75;;;2.42;;
21886;SDS011;11108;49.988;8.182;2023-09-07T06:30:53;3.00;;;2.80;;
21886;SDS011;11108;49.988;8.182;2023-09-07T06:33:19;2.90;;;2.70;;
21886;SDS011;11108;49.988;8.182;2023-09-07T06:35:44;3.00;;;2.80;;
21886;SDS011;11108;49.988;8.182;2023-09-07T06:38:09;2.83;;;2.67;;
21886;SDS011;11108;49.988;8.182;2023-09-07T06:40:34;2.70;;;2.60;;
21886;SDS011;11108;49.988;8.182;2023-09-07T06:43:00;3.20;;;2.90;;
21886;SDS011;11108;49.988;8.182;2023-09-07T06:45:25;2.60;;;2.40;;
21886;SDS011;11108;49.988;8.182;2023-09-07T06:47:50;9.27;;;4.50;;
21886;SDS011;11108;49.988;8.182;2023-09-07T06:50:16;4.63;;;4.23;;
21886;SDS011;11108;49.988;8.182;2023-09-07T06:52:41;4.33;;;3.97;;
21886;SDS011;11108;49.988;8.182;2023-09-07T06:55:06;3.37;;;3.17;;
21886;SDS011;11108;49.988;8.182;2023-09-07T06:57:32;3.27;;;2.93;;
21886;SDS011;11108;49.988;8.182;2023-09-07T06:59:59;3.17;;;2.97;;
21886;SDS011;11108;49.988;8.182;2023-09-07T07:02:24;3.20;;;3.00;;
21886;SDS011;11108;49.988;8.182;2023-09-07T07:04:49;3.33;;;3.00;;
21886;SDS011;11108;49.988;8.182;2023-09-07T07:07:14;3.50;;;3.20;;
21886;SDS011;11108;49.988;8.182;2023-09-07T07:09:40;3.20;;;3.00;;
21886;SDS011;11108;49.988;8.182;2023-09-07T07:12:05;3.00;;;2.90;;
21886;SDS011;11108;49.988;8.182;2023-09-07T07:14:30;3.00;;;2.80;;
21886;SDS011;11108;49.988;8.182;2023-09-07T07:16:55;3.43;;;3.13;;
21886;SDS011;11108;49.988;8.182;2023-09-07T07:19:21;3.10;;;2.80;;
21886;SDS011;11108;49.988;8.182;2023-09-07T07:21:47;3.45;;;3.20;;
21886;SDS011;11108;49.988;8.182;2023-09-07T07:24:13;5.17;;;3.57;;
21886;SDS011;11108;49.988;8.182;2023-09-07T07:26:38;4.80;;;3.10;;
21886;SDS011;11108;49.988;8.182;2023-09-07T07:29:03;5.83;;;3.40;;
21886;SDS011;11108;49.988;8.182;2023-09-07T07:31:28;3.50;;;3.20;;
21886;SDS011;11108;49.988;8.182;2023-09-07T07:33:54;3.40;;;3.10;;
21886;SDS011;11108;49.988;8.182;2023-09-07T07:36:20;3.27;;;2.97;;
21886;SDS011;11108;49.988;8.182;2023-09-07T07:38:45;3.50;;;3.20;;
21886;SDS011;11108;49.988;8.182;2023-09-07T07:41:11;3.20;;;2.90;;
21886;SDS011;11108;49.988;8.182;2023-09-07T07:43:36;2.90;;;2.70;;
21886;SDS011;11108;49.988;8.182;2023-09-07T07:46:01;3.45;;;2.97;;
21886;SDS011;11108;49.988;8.182;2023-09-07T07:48:26;2.93;;;2.73;;
21886;SDS011;11108;49.988;8.182;2023-09-07T07:50:53;3.10;;;2.90;;
21886;SDS011;11108;49.988;8.182;2023-09-07T07:53:18;3.20;;;3.00;;
21886;SDS011;11108;49.988;8.182;2023-09-07T07:55:44;3.30;;;3.00;;
21886;SDS011;11108;49.988;8.182;2023-09-07T07:58:09;3.20;;;3.00;;
21886;SDS011;11108;49.988;8.182;2023-09-07T08:00:34;2.93;;;2.73;;
21886;SDS011;11108;49.988;8.182;2023-09-07T08:03:00;3.50;;;3.10;;
21886;SDS011;11108;49.988;8.182;2023-09-07T08:05:27;2.70;;;2.60;;
21886;SDS011;11108;49.988;8.182;2023-09-07T08:07:53;2.70;;;2.50;;
21886;SDS011;11108;49.988;8.182;2023-09-07T08:10:18;3.08;;;2.83;;
21886;SDS011;11108;49.988;8.182;2023-09-07T08:12:43;3.00;;;2.80;;
21886;SDS011;11108;49.988;8.182;2023-09-07T08:15:09;3.13;;;2.92;;
21886;SDS011;11108;49.988;8.182;2023-09-07T08:17:34;3.22;;;3.03;;
21886;SDS011;11108;49.988;8.182;2023-09-07T08:20:00;2.90;;;2.70;;
21886;SDS011;11108;49.988;8.182;2023-09-07T08:22:25;2.75;;;2.55;;
21886;SDS011;11108;49.988;8.182;2023-09-07T08:24:50;3.15;;;2.95;;
21886;SDS011;11108;49.988;8.182;2023-09-07T08:27:16;3.25;;;2.95;;
21886;SDS011;11108;49.988;8.182;2023-09-07T08:29:44;2.85;;;2.65;;
21886;SDS011;11108;49.988;8.182;2023-09-07T08:32:13;3.20;;;3.00;;
21886;SDS011;11108;49.988;8.182;2023-09-07T08:34:39;2.60;;;2.50;;
21886;SDS011;11108;49.988;8.182;2023-09-07T08:37:05;3.17;;;2.97;;
21886;SDS011;11108;49.988;8.182;2023-09-07T08:39:33;3.03;;;2.85;;
21886;SDS011;11108;49.988;8.182;2023-09-07T08:41:59;3.50;;;3.20;;
21886;SDS011;11108;49.988;8.182;2023-09-07T08:44:25;3.35;;;3.05;;
21886;SDS011;11108;49.988;8.182;2023-09-07T08:46:51;2.97;;;2.70;;
21886;SDS011;11108;49.988;8.182;2023-09-07T08:49:17;2.90;;;2.70;;
21886;SDS011;11108;49.988;8.182;2023-09-07T08:51:44;2.90;;;2.70;;
21886;SDS011;11108;49.988;8.182;2023-09-07T08:54:09;3.40;;;3.10;;
21886;SDS011;11108;49.988;8.182;2023-09-07T08:56:35;5.35;;;3.00;;
21886;SDS011;11108;49.988;8.182;2023-09-07T08:59:00;2.78;;;2.67;;
21886;SDS011;11108;49.988;8.182;2023-09-07T09:01:25;3.20;;;3.00;;
21886;SDS011;11108;49.988;8.182;2023-09-07T09:03:51;2.90;;;2.70;;
21886;SDS011;11108;49.988;8.182;2023-09-07T09:06:17;3.20;;;3.05;;
21886;SDS011;11108;49.988;8.182;2023-09-07T09:08:47;3.22;;;3.03;;
21886;SDS011;11108;49.988;8.182;2023-09-07T09:11:16;3.78;;;3.15;;
21886;SDS011;11108;49.988;8.182;2023-09-07T09:13:42;3.15;;;2.95;;
21886;SDS011;11108;49.988;8.182;2023-09-07T09:16:07;2.83;;;2.72;;
21886;SDS011;11108;49.988;8.182;2023-09-07T09:18:33;2.50;;;2.40;;
21886;SDS011;11108;49.988;8.182;2023-09-07T09:20:58;3.30;;;3.10;;
21886;SDS011;11108;49.988;8.182;2023-09-07T09:23:33;3.20;;;2.92;;
21886;SDS011;11108;49.988;8.182;2023-09-07T09:25:59;4.38;;;2.70;;
21886;SDS011;11108;49.988;8.182;2023-09-07T09:28:25;4.95;;;3.25;;
21886;SDS011;11108;49.988;8.182;2023-09-07T09:30:51;3.03;;;2.78;;
21886;SDS011;11108;49.988;8.182;2023-09-07T09:33:18;3.45;;;3.15;;
21886;SDS011;11108;49.988;8.182;2023-09-07T09:35:44;3.10;;;2.90;;
21886;SDS011;11108;49.988;8.182;2023-09-07T09:38:09;2.70;;;2.60;;
21886;SDS011;11108;49.988;8.182;2023-09-07T09:40:35;3.25;;;3.03;;
21886;SDS011;11108;49.988;8.182;2023-09-07T09:43:01;5.25;;;3.95;;
21886;SDS011;11108;49.988;8.182;2023-09-07T09:45:26;10.05;;;5.15;;
21886;SDS011;11108;49.988;8.182;2023-09-07T09:47:51;7.40;;;4.50;;
21886;SDS011;11108;49.988;8.182;2023-09-07T09:50:19;9.60;;;5.45;;
21886;SDS011;11108;49.988;8.182;2023-09-07T09:52:45;8.20;;;5.90;;
21886;SDS011;11108;49.988;8.182;2023-09-07T09:55:10;17.27;;;10.52;;
21886;SDS011;11108;49.988;8.182;2023-09-07T09:57:38;19.38;;;13.48;;
21886;SDS011;11108;49.988;8.182;2023-09-07T10:00:04;25.85;;;13.85;;
21886;SDS011;11108;49.988;8.182;2023-09-07T10:03:04;15.55;;;11.30;;
21886;SDS011;11108;49.988;8.182;2023-09-07T10:05:30;16.02;;;10.73;;
21886;SDS011;11108;49.988;8.182;2023-09-07T10:08:00;13.07;;;10.20;;
21886;SDS011;11108;49.988;8.182;2023-09-07T10:10:26;12.05;;;9.20;;
21886;SDS011;11108;49.988;8.182;2023-09-07T10:12:56;16.90;;;9.32;;
21886;SDS011;11108;49.988;8.182;2023-09-07T10:15:25;18.35;;;8.85;;
21886;SDS011;11108;49.988;8.182;2023-09-07T10:17:50;13.50;;;8.70;;
21886;SDS011;11108;49.988;8.182;2023-09-07T10:20:27;13.98;;;10.10;;
21886;SDS011;11108;49.988;8.182;2023-09-07T10:23:01;13.80;;;8.20;;
21886;SDS011;11108;49.988;8.182;2023-09-07T10:25:26;14.27;;;8.68;;
21886;SDS011;11108;49.988;8.182;2023-09-07T10:27:54;9.88;;;6.80;;
21886;SDS011;11108;49.988;8.182;2023-09-07T10:30:20;9.57;;;6.80;;
21886;SDS011;11108;49.988;8.182;2023-09-07T10:32:48;9.25;;;7.20;;
21886;SDS011;11108;49.988;8.182;2023-09-07T10:35:14;13.57;;;7.63;;
21886;SDS011;11108;49.988;8.182;2023-09-07T10:37:40;9.98;;;6.95;;
21886;SDS011;11108;49.988;8.182;2023-09-07T10:40:06;10.30;;;6.88;;
21886;SDS011;11108;49.988;8.182;2023-09-07T10:42:36;7.60;;;6.20;;
21886;SDS011;11108;49.988;8.182;2023-09-07T10:45:08;8.93;;;6.07;;
21886;SDS011;11108;49.988;8.182;2023-09-07T10:47:34;7.40;;;6.18;;
21886;SDS011;11108;49.988;8.182;2023-09-07T10:49:59;7.35;;;6.60;;
21886;SDS011;11108;49.988;8.182;2023-09-07T10:52:24;7.40;;;6.32;;
21886;SDS011;11108;49.988;8.182;2023-09-07T10:54:59;8.18;;;5.72;;
21886;SDS011;11108;49.988;8.182;2023-09-07T10:57:24;8.20;;;5.18;;
21886;SDS011;11108;49.988;8.182;2023-09-07T10:59:49;8.80;;;5.43;;
21886;SDS011;11108;49.988;8.182;2023-09-07T11:02:15;6.43;;;5.32;;
21886;SDS011;11108;49.988;8.182;2023-09-07T11:04:40;7.78;;;5.70;;
21886;SDS011;11108;49.988;8.182;2023-09-07T11:07:05;9.15;;;5.13;;
21886;SDS011;11108;49.988;8.182;2023-09-07T11:09:31;7.07;;;5.30;;
21886;SDS011;11108;49.988;8.182;2023-09-07T11:11:56;6.85;;;5.63;;
21886;SDS011;11108;49.988;8.182;2023-09-07T11:14:22;6.45;;;5.55;;
21886;SDS011;11108;49.988;8.182;2023-09-07T11:16:47;6.85;;;5.18;;
21886;SDS011;11108;49.988;8.182;2023-09-07T11:19:13;5.82;;;4.97;;
21886;SDS011;11108;49.988;8.182;2023-09-07T11:21:40;5.93;;;5.05;;
21886;SDS011;11108;49.988;8.182;2023-09-07T11:24:05;6.03;;;5.18;;
21886;SDS011;11108;49.988;8.182;2023-09-07T11:26:41;5.45;;;4.95;;
21886;SDS011;11108;49.988;8.182;2023-09-07T11:29:06;5.90;;;4.90;;
21886;SDS011;11108;49.988;8.182;2023-09-07T11:31:31;5.07;;;4.50;;
21886;SDS011;11108;49.988;8.182;2023-09-07T11:33:57;5.70;;;5.15;;
21886;SDS011;11108;49.988;8.182;2023-09-07T11:36:22;7.20;;;5.20;;
21886;SDS011;11108;49.988;8.182;2023-09-07T11:38:49;5.78;;;5.18;;
21886;SDS011;11108;49.988;8.182;2023-09-07T11:41:14;5.20;;;4.63;;
21886;SDS011;11108;49.988;8.182;2023-09-07T11:43:40;4.72;;;4.32;;
21886;SDS011;11108;49.988;8.182;2023-09-07T11:46:06;4.75;;;4.35;;
21886;SDS011;11108;49.988;8.182;2023-09-07T11:48:32;4.93;;;4.32;;
21886;SDS011;11108;49.988;8.182;2023-09-07T11:50:58;5.05;;;4.45;;
21886;SDS011;11108;49.988;8.182;2023-09-07T11:53:24;4.90;;;4.43;;
21886;SDS011;11108;49.988;8.182;2023-09-07T11:55:49;4.90;;;4.50;;
21886;SDS011;11108;49.988;8.182;2023-09-07T11:58:14;4.85;;;4.38;;
21886;SDS011;11108;49.988;8.182;2023-09-07T12:00:39;4.55;;;4.15;;
21886;SDS011;11108;49.988;8.182;2023-09-07T12:03:06;5.45;;;4.68;;
21886;SDS011;11108;49.988;8.182;2023-09-07T12:05:31;4.28;;;3.88;;
21886;SDS011;11108;49.988;8.182;2023-09-07T12:07:57;4.07;;;3.80;;
21886;SDS011;11108;49.988;8.182;2023-09-07T12:10:22;5.03;;;4.53;;
21886;SDS011;11108;49.988;8.182;2023-09-07T12:12:47;4.80;;;4.40;;
21886;SDS011;11108;49.988;8.182;2023-09-07T12:15:12;5.35;;;4.85;;
21886;SDS011;11108;49.988;8.182;2023-09-07T12:17:38;5.18;;;4.63;;
21886;SDS011;11108;49.988;8.182;2023-09-07T12:20:03;4.18;;;3.88;;
21886;SDS011;11108;49.988;8.182;2023-09-07T12:22:30;4.60;;;4.22;;
21886;SDS011;11108;49.988;8.182;2023-09-07T12:24:55;4.90;;;4.47;;
21886;SDS011;11108;49.988;8.182;2023-09-07T12:27:21;4.82;;;4.47;;
21886;SDS011;11108;49.988;8.182;2023-09-07T12:29:46;4.75;;;4.30;;
21886;SDS011;11108;49.988;8.182;2023-09-07T12:32:11;4.25;;;3.95;;
21886;SDS011;11108;49.988;8.182;2023-09-07T12:34:37;4.88;;;4.43;;
21886;SDS011;11108;49.988;8.182;2023-09-07T12:37:02;4.53;;;4.13;;
21886;SDS011;11108;49.988;8.182;2023-09-07T12:39:29;4.78;;;4.38;;
21886;SDS011;11108;49.988;8.182;2023-09-07T12:41:54;4.90;;;4.32;;
21886;SDS011;11108;49.988;8.182;2023-09-07T12:44:20;5.00;;;4.05;;
21886;SDS011;11108;49.988;8.182;2023-09-07T12:46:46;5.10;;;4.22;;
21886;SDS011;11108;49.988;8.182;2023-09-07T12:49:11;4.60;;;4.05;;
21886;SDS011;11108;49.988;8.182;2023-09-07T12:51:36;4.32;;;3.92;;
21886;SDS011;11108;49.988;8.182;2023-09-07T12:54:01;4.78;;;4.32;;
21886;SDS011;11108;49.988;8.182;2023-09-07T12:56:27;4.38;;;3.95;;
21886;SDS011;11108;49.988;8.182;2023-09-07T12:58:53;4.80;;;4.43;;
21886;SDS011;11108;49.988;8.182;2023-09-07T13:01:18;4.40;;;4.00;;
21886;SDS011;11108;49.988;8.182;2023-09-07T13:03:43;4.40;;;4.10;;
21886;SDS011;11108;49.988;8.182;2023-09-07T13:06:08;4.60;;;4.20;;
21886;SDS011;11108;49.988;8.182;2023-09-07T13:08:34;4.22;;;3.92;;
21886;SDS011;11108;49.988;8.182;2023-09-07T13:10:59;4.97;;;4.47;;
21886;SDS011;11108;49.988;8.182;2023-09-07T13:13:24;4.63;;;4.30;;
21886;SDS011;11108;49.988;8.182;2023-09-07T13:15:53;4.70;;;4.35;;
21886;SDS011;11108;49.988;8.182;2023-09-07T13:18:19;4.20;;;3.90;;
21886;SDS011;11108;49.988;8.182;2023-09-07T13:20:44;5.20;;;4.80;;
21886;SDS011;11108;49.988;8.182;2023-09-07T13:23:10;5.00;;;4.50;;
21886;SDS011;11108;49.988;8.182;2023-09-07T13:25:35;4.75;;;4.35;;
21886;SDS011;11108;49.988;8.182;2023-09-07T13:28:00;4.55;;;4.15;;
21886;SDS011;11108;49.988;8.182;2023-09-07T13:30:25;4.40;;;4.10;;
21886;SDS011;11108;49.988;8.182;2023-09-07T13:32:51;4.78;;;4.47;;
21886;SDS011;11108;49.988;8.182;2023-09-07T13:35:16;4.60;;;4.20;;
21886;SDS011;11108;49.988;8.182;2023-09-07T13:37:41;4.72;;;4.32;;
21886;SDS011;11108;49.988;8.182;2023-09-07T13:40:07;4.55;;;4.25;;
21886;SDS011;11108;49.988;8.182;2023-09-07T13:42:32;4.88;;;4.47;;
21886;SDS011;11108;49.988;8.182;2023-09-07T13:44:58;4.78;;;4.38;;
21886;SDS011;11108;49.988;8.182;2023-09-07T13:47:23;4.72;;;4.35;;
21886;SDS011;11108;49.988;8.182;2023-09-07T13:49:48;4.60;;;4.22;;
21886;SDS011;11108;49.988;8.182;2023-09-07T13:52:13;4.85;;;4.45;;
21886;SDS011;11108;49.988;8.182;2023-09-07T13:54:38;4.97;;;4.57;;
21886;SDS011;11108;49.988;8.182;2023-09-07T13:57:04;4.57;;;4.28;;
21886;SDS011;11108;49.988;8.182;2023-09-07T13:59:29;4.57;;;4.18;;
21886;SDS011;11108;49.988;8.182;2023-09-07T14:01:57;3.75;;;3.45;;
21886;SDS011;11108;49.988;8.182;2023-09-07T14:04:22;4.60;;;4.20;;
21886;SDS011;11108;49.988;8.182;2023-09-07T14:06:48;4.20;;;3.90;;
21886;SDS011;11108;49.988;8.182;2023-09-07T14:09:13;4.28;;;3.97;;
21886;SDS011;11108;49.988;8.182;2023-09-07T14:11:39;4.22;;;3.92;;
21886;SDS011;11108;49.988;8.182;2023-09-07T14:14:04;4.15;;;3.85;;
21886;SDS011;11108;49.988;8.182;2023-09-07T14:16:29;4.07;;;3.80;;
21886;SDS011;11108;49.988;8.182;2023-09-07T14:18:54;4.40;;;3.85;;
21886;SDS011;11108;49.988;8.182;2023-09-07T14:21:20;5.13;;;4.70;;
21886;SDS011;11108;49.988;8.182;2023-09-07T14:23:45;4.28;;;3.85;;
21886;SDS011;11108;49.988;8.182;2023-09-07T14:26:11;4.07;;;3.80;;
21886;SDS011;11108;49.988;8.182;2023-09-07T14:28:36;4.78;;;4.40;;
21886;SDS011;11108;49.988;8.182;2023-09-07T14:31:02;4.45;;;4.15;;
21886;SDS011;11108;49.988;8.182;2023-09-07T14:33:29;4.15;;;3.92;;
21886;SDS011;11108;49.988;8.182;2023-09-07T14:35:54;4.00;;;3.70;;
21886;SDS011;11108;49.988;8.182;2023-09-07T14:38:20;4.10;;;3.63;;